sensor_id;sensor_type;location;lat;lon;timestamp;P1;durP1;ratioP1;P2;durP2;ratioP2
43014;SDS011;28637;50.554;7.032;2023-11-22T00:05:50;6.53;;;4.65;;
43014;SDS011;28637;50.554;7.032;2023-11-22T00:10:51;7.85;;;4.50;;
43014;SDS011;28637;50.554;7.032;2023-11-22T00:15:52;9.60;;;4.60;;
43014;SDS011;28637;50.554;7.032;2023-11-22T00:20:53;11.82;;;4.93;;
43014;SDS011;28637;50.554;7.032;2023-11-22T00:25:55;8.57;;;4.70;;
43014;SDS011;28637;50.554;7.032;2023-11-22T00:35:58;7.93;;;4.93;;
43014;SDS011;28637;50.554;7.032;2023-11-22T00:40:59;7.03;;;4.70;;
43014;SDS011;28637;50.554;7.032;2023-11-22T00:45:59;13.23;;;8.60;;
43014;SDS011;28637;50.554;7.032;2023-11-22T00:51:01;8.60;;;5.53;;
43014;SDS011;28637;50.554;7.032;2023-11-22T00:56:08;9.70;;;5.05;;
43014;SDS011;28637;50.554;7.032;2023-11-22T01:01:09;8.57;;;4.80;;
43014;SDS011;28637;50.554;7.032;2023-11-22T01:06:09;8.47;;;5.03;;
43014;SDS011;28637;50.554;7.032;2023-11-22T01:11:10;6.82;;;4.80;;
43014;SDS011;28637;50.554;7.032;2023-11-22T01:16:11;8.87;;;5.57;;
43014;SDS011;28637;50.554;7.032;2023-11-22T01:21:13;8.13;;;5.30;;
43014;SDS011;28637;50.554;7.032;2023-11-22T01:26:14;10.50;;;5.60;;
43014;SDS011;28637;50.554;7.032;2023-11-22T01:31:16;9.43;;;5.72;;
43014;SDS011;28637;50.554;7.032;2023-11-22T01:36:21;10.63;;;6.07;;
43014;SDS011;28637;50.554;7.032;2023-11-22T01:41:21;10.38;;;5.53;;
43014;SDS011;28637;50.554;7.032;2023-11-22T01:46:23;10.35;;;6.38;;
43014;SDS011;28637;50.554;7.032;2023-11-22T01:51:25;10.00;;;6.30;;
43014;SDS011;28637;50.554;7.032;2023-11-22T01:56:27;8.13;;;5.35;;
43014;SDS011;28637;50.554;7.032;2023-11-22T02:01:29;9.20;;;5.60;;
43014;SDS011;28637;50.554;7.032;2023-11-22T02:06:30;8.70;;;5.88;;
43014;SDS011;28637;50.554;7.032;2023-11-22T02:11:31;9.88;;;6.00;;
43014;SDS011;28637;50.554;7.032;2023-11-22T02:16:33;13.05;;;6.90;;
43014;SDS011;28637;50.554;7.032;2023-11-22T02:21:34;11.05;;;6.50;;
43014;SDS011;28637;50.554;7.032;2023-11-22T02:26:35;10.90;;;6.18;;
43014;SDS011;28637;50.554;7.032;2023-11-22T02:31:36;9.63;;;6.38;;
43014;SDS011;28637;50.554;7.032;2023-11-22T02:36:39;11.57;;;6.28;;
43014;SDS011;28637;50.554;7.032;2023-11-22T02:41:42;11.15;;;6.65;;
43014;SDS011;28637;50.554;7.032;2023-11-22T02:46:43;9.70;;;5.93;;
43014;SDS011;28637;50.554;7.032;2023-11-22T02:51:43;11.52;;;6.50;;
43014;SDS011;28637;50.554;7.032;2023-11-22T02:56:46;9.88;;;6.40;;
43014;SDS011;28637;50.554;7.032;2023-11-22T03:01:47;10.45;;;6.55;;
43014;SDS011;28637;50.554;7.032;2023-11-22T03:06:48;12.38;;;7.00;;
43014;SDS011;28637;50.554;7.032;2023-11-22T03:11:49;12.13;;;6.90;;
43014;SDS011;28637;50.554;7.032;2023-11-22T03:16:49;10.93;;;7.07;;
43014;SDS011;28637;50.554;7.032;2023-11-22T03:21:50;10.47;;;6.67;;
43014;SDS011;28637;50.554;7.032;2023-11-22T03:26:51;11.40;;;6.82;;
43014;SDS011;28637;50.554;7.032;2023-11-22T03:31:52;11.13;;;6.80;;
43014;SDS011;28637;50.554;7.032;2023-11-22T03:36:53;11.70;;;6.35;;
43014;SDS011;28637;50.554;7.032;2023-11-22T03:41:54;14.77;;;6.90;;
43014;SDS011;28637;50.554;7.032;2023-11-22T03:46:55;12.55;;;7.05;;
43014;SDS011;28637;50.554;7.032;2023-11-22T03:51:56;13.43;;;7.20;;
43014;SDS011;28637;50.554;7.032;2023-11-22T03:56:57;12.60;;;6.90;;
43014;SDS011;28637;50.554;7.032;2023-11-22T04:01:58;11.18;;;7.50;;
43014;SDS011;28637;50.554;7.032;2023-11-22T04:06:59;11.70;;;6.83;;
43014;SDS011;28637;50.554;7.032;2023-11-22T04:12:02;12.07;;;7.65;;
43014;SDS011;28637;50.554;7.032;2023-11-22T04:17:04;12.75;;;7.13;;
43014;SDS011;28637;50.554;7.032;2023-11-22T04:22:04;10.95;;;6.68;;
43014;SDS011;28637;50.554;7.032;2023-11-22T04:27:05;11.52;;;7.22;;
43014;SDS011;28637;50.554;7.032;2023-11-22T04:32:06;13.30;;;7.03;;
43014;SDS011;28637;50.554;7.032;2023-11-22T04:37:06;14.77;;;7.30;;
43014;SDS011;28637;50.554;7.032;2023-11-22T04:42:07;13.57;;;7.50;;
43014;SDS011;28637;50.554;7.032;2023-11-22T04:47:08;11.57;;;7.30;;
43014;SDS011;28637;50.554;7.032;2023-11-22T04:52:09;14.27;;;7.55;;
43014;SDS011;28637;50.554;7.032;2023-11-22T04:57:10;11.90;;;7.43;;
43014;SDS011;28637;50.554;7.032;2023-11-22T05:02:10;18.38;;;10.38;;
43014;SDS011;28637;50.554;7.032;2023-11-22T05:07:11;14.77;;;8.07;;
43014;SDS011;28637;50.554;7.032;2023-11-22T05:12:12;12.90;;;7.17;;
43014;SDS011;28637;50.554;7.032;2023-11-22T05:22:15;11.48;;;6.70;;
43014;SDS011;28637;50.554;7.032;2023-11-22T05:27:16;10.87;;;6.80;;
43014;SDS011;28637;50.554;7.032;2023-11-22T05:32:17;14.37;;;6.87;;
43014;SDS011;28637;50.554;7.032;2023-11-22T05:37:18;10.53;;;6.27;;
43014;SDS011;28637;50.554;7.032;2023-11-22T05:42:19;11.13;;;6.57;;
43014;SDS011;28637;50.554;7.032;2023-11-22T05:47:20;13.75;;;6.80;;
43014;SDS011;28637;50.554;7.032;2023-11-22T05:52:20;10.20;;;5.97;;
43014;SDS011;28637;50.554;7.032;2023-11-22T05:57:23;11.55;;;6.50;;
43014;SDS011;28637;50.554;7.032;2023-11-22T06:02:25;11.45;;;6.10;;
43014;SDS011;28637;50.554;7.032;2023-11-22T06:12:27;12.15;;;7.60;;
43014;SDS011;28637;50.554;7.032;2023-11-22T06:17:28;23.85;;;15.90;;
43014;SDS011;28637;50.554;7.032;2023-11-22T06:22:30;44.22;;;26.88;;
43014;SDS011;28637;50.554;7.032;2023-11-22T06:32:33;56.15;;;30.70;;
43014;SDS011;28637;50.554;7.032;2023-11-22T06:37:34;35.90;;;20.65;;
43014;SDS011;28637;50.554;7.032;2023-11-22T06:42:35;18.15;;;11.10;;
43014;SDS011;28637;50.554;7.032;2023-11-22T06:47:36;10.85;;;7.32;;
43014;SDS011;28637;50.554;7.032;2023-11-22T06:52:37;7.10;;;4.20;;
43014;SDS011;28637;50.554;7.032;2023-11-22T06:57:39;8.25;;;4.55;;
43014;SDS011;28637;50.554;7.032;2023-11-22T07:02:40;7.75;;;4.50;;
43014;SDS011;28637;50.554;7.032;2023-11-22T07:07:41;8.00;;;4.50;;
43014;SDS011;28637;50.554;7.032;2023-11-22T07:12:41;8.38;;;4.55;;
43014;SDS011;28637;50.554;7.032;2023-11-22T07:17:43;8.32;;;5.05;;
43014;SDS011;28637;50.554;7.032;2023-11-22T07:22:45;7.82;;;4.22;;
43014;SDS011;28637;50.554;7.032;2023-11-22T07:27:48;5.88;;;3.50;;
43014;SDS011;28637;50.554;7.032;2023-11-22T07:32:50;6.55;;;3.45;;
43014;SDS011;28637;50.554;7.032;2023-11-22T07:37:51;5.07;;;3.20;;
43014;SDS011;28637;50.554;7.032;2023-11-22T07:42:54;5.28;;;3.40;;
43014;SDS011;28637;50.554;7.032;2023-11-22T07:47:55;6.37;;;3.50;;
43014;SDS011;28637;50.554;7.032;2023-11-22T07:52:59;5.28;;;3.30;;
43014;SDS011;28637;50.554;7.032;2023-11-22T07:58:00;5.00;;;3.27;;
43014;SDS011;28637;50.554;7.032;2023-11-22T08:03:01;8.25;;;3.92;;
43014;SDS011;28637;50.554;7.032;2023-11-22T08:08:03;6.47;;;3.73;;
43014;SDS011;28637;50.554;7.032;2023-11-22T08:13:07;8.20;;;4.65;;
43014;SDS011;28637;50.554;7.032;2023-11-22T08:18:13;7.35;;;4.22;;
43014;SDS011;28637;50.554;7.032;2023-11-22T08:23:35;4.28;;;3.05;;
43014;SDS011;28637;50.554;7.032;2023-11-22T08:28:49;5.90;;;2.80;;
43014;SDS011;28637;50.554;7.032;2023-11-22T08:33:52;6.32;;;2.50;;
43014;SDS011;28637;50.554;7.032;2023-11-22T08:38:53;4.30;;;2.50;;
43014;SDS011;28637;50.554;7.032;2023-11-22T08:43:56;5.13;;;2.05;;
43014;SDS011;28637;50.554;7.032;2023-11-22T08:48:57;3.67;;;2.13;;
43014;SDS011;28637;50.554;7.032;2023-11-22T08:53:58;2.20;;;1.77;;
43014;SDS011;28637;50.554;7.032;2023-11-22T08:59:00;2.90;;;1.80;;
43014;SDS011;28637;50.554;7.032;2023-11-22T09:04:05;2.10;;;1.50;;
43014;SDS011;28637;50.554;7.032;2023-11-22T09:09:08;1.77;;;1.40;;
43014;SDS011;28637;50.554;7.032;2023-11-22T09:14:10;2.67;;;1.38;;
43014;SDS011;28637;50.554;7.032;2023-11-22T09:19:13;4.00;;;1.90;;
43014;SDS011;28637;50.554;7.032;2023-11-22T09:24:16;4.20;;;1.98;;
43014;SDS011;28637;50.554;7.032;2023-11-22T09:29:19;5.07;;;2.38;;
43014;SDS011;28637;50.554;7.032;2023-11-22T09:34:20;3.70;;;2.20;;
43014;SDS011;28637;50.554;7.032;2023-11-22T09:39:20;3.60;;;2.05;;
43014;SDS011;28637;50.554;7.032;2023-11-22T09:44:21;3.17;;;2.08;;
43014;SDS011;28637;50.554;7.032;2023-11-22T09:49:24;3.35;;;2.22;;
43014;SDS011;28637;50.554;7.032;2023-11-22T09:54:25;2.92;;;2.15;;
43014;SDS011;28637;50.554;7.032;2023-11-22T09:59:29;2.35;;;1.92;;
43014;SDS011;28637;50.554;7.032;2023-11-22T10:04:32;3.53;;;2.30;;
43014;SDS011;28637;50.554;7.032;2023-11-22T10:09:34;3.38;;;2.30;;
43014;SDS011;28637;50.554;7.032;2023-11-22T10:14:37;3.38;;;2.33;;
43014;SDS011;28637;50.554;7.032;2023-11-22T10:19:40;3.90;;;2.00;;
43014;SDS011;28637;50.554;7.032;2023-11-22T10:24:48;3.20;;;1.92;;
43014;SDS011;28637;50.554;7.032;2023-11-22T10:29:50;1.77;;;1.50;;
43014;SDS011;28637;50.554;7.032;2023-11-22T10:34:52;2.70;;;1.40;;
43014;SDS011;28637;50.554;7.032;2023-11-22T10:39:55;4.30;;;1.52;;
43014;SDS011;28637;50.554;7.032;2023-11-22T10:44:56;1.23;;;1.07;;
43014;SDS011;28637;50.554;7.032;2023-11-22T10:50:02;2.20;;;1.25;;
43014;SDS011;28637;50.554;7.032;2023-11-22T10:55:07;1.75;;;1.15;;
43014;SDS011;28637;50.554;7.032;2023-11-22T11:00:11;1.83;;;1.08;;
43014;SDS011;28637;50.554;7.032;2023-11-22T11:05:18;2.58;;;1.20;;
43014;SDS011;28637;50.554;7.032;2023-11-22T11:10:24;1.10;;;1.00;;
43014;SDS011;28637;50.554;7.032;2023-11-22T11:15:24;2.43;;;1.40;;
43014;SDS011;28637;50.554;7.032;2023-11-22T11:20:32;2.72;;;2.20;;
43014;SDS011;28637;50.554;7.032;2023-11-22T11:25:54;1.50;;;1.40;;
43014;SDS011;28637;50.554;7.032;2023-11-22T11:30:56;1.95;;;1.67;;
43014;SDS011;28637;50.554;7.032;2023-11-22T11:35:57;5.75;;;2.88;;
43014;SDS011;28637;50.554;7.032;2023-11-22T11:41:05;3.17;;;1.80;;
43014;SDS011;28637;50.554;7.032;2023-11-22T11:46:10;5.22;;;2.60;;
43014;SDS011;28637;50.554;7.032;2023-11-22T11:51:14;6.80;;;2.78;;
43014;SDS011;28637;50.554;7.032;2023-11-22T11:56:18;7.85;;;5.25;;
43014;SDS011;28637;50.554;7.032;2023-11-22T12:01:19;5.00;;;3.30;;
43014;SDS011;28637;50.554;7.032;2023-11-22T12:06:21;4.97;;;2.30;;
43014;SDS011;28637;50.554;7.032;2023-11-22T12:11:22;4.03;;;3.20;;
43014;SDS011;28637;50.554;7.032;2023-11-22T12:16:22;4.17;;;3.77;;
43014;SDS011;28637;50.554;7.032;2023-11-22T12:21:23;2.10;;;1.60;;
43014;SDS011;28637;50.554;7.032;2023-11-22T12:26:24;1.63;;;1.50;;
43014;SDS011;28637;50.554;7.032;2023-11-22T12:31:25;1.17;;;1.00;;
43014;SDS011;28637;50.554;7.032;2023-11-22T12:36:29;1.30;;;1.10;;
43014;SDS011;28637;50.554;7.032;2023-11-22T12:41:30;1.97;;;1.33;;
43014;SDS011;28637;50.554;7.032;2023-11-22T12:51:59;1.35;;;1.20;;
43014;SDS011;28637;50.554;7.032;2023-11-22T12:57:00;1.60;;;1.40;;
43014;SDS011;28637;50.554;7.032;2023-11-22T13:02:01;3.72;;;1.27;;
43014;SDS011;28637;50.554;7.032;2023-11-22T13:07:02;3.73;;;1.10;;
43014;SDS011;28637;50.554;7.032;2023-11-22T13:12:03;1.40;;;1.30;;
43014;SDS011;28637;50.554;7.032;2023-11-22T13:17:04;4.20;;;1.08;;
43014;SDS011;28637;50.554;7.032;2023-11-22T13:22:07;1.45;;;1.20;;
43014;SDS011;28637;50.554;7.032;2023-11-22T13:27:11;5.22;;;1.20;;
43014;SDS011;28637;50.554;7.032;2023-11-22T13:32:12;2.00;;;1.30;;
43014;SDS011;28637;50.554;7.032;2023-11-22T13:37:12;1.10;;;1.00;;
43014;SDS011;28637;50.554;7.032;2023-11-22T13:42:16;2.67;;;1.25;;
43014;SDS011;28637;50.554;7.032;2023-11-22T13:47:17;1.52;;;1.20;;
43014;SDS011;28637;50.554;7.032;2023-11-22T13:52:17;2.20;;;1.20;;
43014;SDS011;28637;50.554;7.032;2023-11-22T13:57:18;1.80;;;1.30;;
43014;SDS011;28637;50.554;7.032;2023-11-22T14:02:19;1.40;;;1.30;;
43014;SDS011;28637;50.554;7.032;2023-11-22T14:07:20;1.53;;;1.40;;
43014;SDS011;28637;50.554;7.032;2023-11-22T14:12:20;2.50;;;1.33;;
43014;SDS011;28637;50.554;7.032;2023-11-22T14:17:21;3.13;;;1.57;;
43014;SDS011;28637;50.554;7.032;2023-11-22T14:22:24;1.75;;;1.50;;
43014;SDS011;28637;50.554;7.032;2023-11-22T14:27:25;2.80;;;1.70;;
43014;SDS011;28637;50.554;7.032;2023-11-22T14:32:28;2.50;;;1.83;;
43014;SDS011;28637;50.554;7.032;2023-11-22T14:37:29;2.60;;;1.87;;
43014;SDS011;28637;50.554;7.032;2023-11-22T14:42:30;3.07;;;2.33;;
43014;SDS011;28637;50.554;7.032;2023-11-22T14:47:31;3.50;;;2.47;;
43014;SDS011;28637;50.554;7.032;2023-11-22T14:52:36;3.85;;;2.25;;
43014;SDS011;28637;50.554;7.032;2023-11-22T14:57:36;2.50;;;2.00;;
43014;SDS011;28637;50.554;7.032;2023-11-22T15:02:37;4.13;;;2.27;;
43014;SDS011;28637;50.554;7.032;2023-11-22T15:07:38;3.83;;;2.27;;
43014;SDS011;28637;50.554;7.032;2023-11-22T15:12:41;2.90;;;2.15;;
43014;SDS011;28637;50.554;7.032;2023-11-22T15:17:42;2.47;;;2.00;;
43014;SDS011;28637;50.554;7.032;2023-11-22T15:22:43;5.47;;;2.27;;
43014;SDS011;28637;50.554;7.032;2023-11-22T15:27:44;3.83;;;2.30;;
43014;SDS011;28637;50.554;7.032;2023-11-22T15:32:44;2.90;;;2.10;;
43014;SDS011;28637;50.554;7.032;2023-11-22T15:37:45;4.53;;;2.28;;
43014;SDS011;28637;50.554;7.032;2023-11-22T15:42:46;6.75;;;2.80;;
43014;SDS011;28637;50.554;7.032;2023-11-22T15:47:46;4.35;;;2.40;;
43014;SDS011;28637;50.554;7.032;2023-11-22T15:52:47;2.53;;;2.03;;
43014;SDS011;28637;50.554;7.032;2023-11-22T15:57:48;3.83;;;2.30;;
43014;SDS011;28637;50.554;7.032;2023-11-22T16:02:48;4.20;;;2.50;;
43014;SDS011;28637;50.554;7.032;2023-11-22T16:07:49;3.65;;;2.22;;
43014;SDS011;28637;50.554;7.032;2023-11-22T16:12:50;3.83;;;2.63;;
43014;SDS011;28637;50.554;7.032;2023-11-22T16:17:51;3.45;;;2.15;;
43014;SDS011;28637;50.554;7.032;2023-11-22T16:22:52;3.95;;;2.30;;
43014;SDS011;28637;50.554;7.032;2023-11-22T16:27:52;2.83;;;2.28;;
43014;SDS011;28637;50.554;7.032;2023-11-22T16:32:53;5.47;;;2.28;;
43014;SDS011;28637;50.554;7.032;2023-11-22T16:37:54;2.78;;;1.98;;
43014;SDS011;28637;50.554;7.032;2023-11-22T16:42:55;2.75;;;2.08;;
43014;SDS011;28637;50.554;7.032;2023-11-22T16:47:56;3.08;;;2.30;;
43014;SDS011;28637;50.554;7.032;2023-11-22T16:52:59;4.38;;;2.70;;
43014;SDS011;28637;50.554;7.032;2023-11-22T16:58:00;13.48;;;7.97;;
43014;SDS011;28637;50.554;7.032;2023-11-22T17:03:02;51.17;;;22.05;;
43014;SDS011;28637;50.554;7.032;2023-11-22T17:08:03;9.13;;;4.53;;
43014;SDS011;28637;50.554;7.032;2023-11-22T17:13:04;5.60;;;3.13;;
43014;SDS011;28637;50.554;7.032;2023-11-22T17:18:06;5.82;;;2.88;;
43014;SDS011;28637;50.554;7.032;2023-11-22T17:23:07;4.63;;;3.47;;
43014;SDS011;28637;50.554;7.032;2023-11-22T17:28:09;5.47;;;3.08;;
43014;SDS011;28637;50.554;7.032;2023-11-22T17:33:10;3.60;;;2.22;;
43014;SDS011;28637;50.554;7.032;2023-11-22T17:38:10;4.10;;;2.30;;
43014;SDS011;28637;50.554;7.032;2023-11-22T17:43:11;3.42;;;2.20;;
43014;SDS011;28637;50.554;7.032;2023-11-22T17:48:12;5.30;;;2.20;;
43014;SDS011;28637;50.554;7.032;2023-11-22T17:53:13;3.73;;;2.03;;
43014;SDS011;28637;50.554;7.032;2023-11-22T17:58:14;5.43;;;2.00;;
43014;SDS011;28637;50.554;7.032;2023-11-22T18:03:15;4.68;;;2.90;;
43014;SDS011;28637;50.554;7.032;2023-11-22T18:08:15;10.13;;;4.65;;
43014;SDS011;28637;50.554;7.032;2023-11-22T18:13:19;12.52;;;6.03;;
43014;SDS011;28637;50.554;7.032;2023-11-22T18:18:20;9.85;;;4.85;;
43014;SDS011;28637;50.554;7.032;2023-11-22T18:23:21;8.18;;;3.90;;
43014;SDS011;28637;50.554;7.032;2023-11-22T18:28:24;6.97;;;3.90;;
43014;SDS011;28637;50.554;7.032;2023-11-22T18:33:25;8.40;;;3.67;;
43014;SDS011;28637;50.554;7.032;2023-11-22T18:38:26;3.00;;;2.00;;
43014;SDS011;28637;50.554;7.032;2023-11-22T18:43:27;3.97;;;2.45;;
43014;SDS011;28637;50.554;7.032;2023-11-22T18:48:28;2.77;;;1.90;;
43014;SDS011;28637;50.554;7.032;2023-11-22T18:53:29;6.80;;;3.10;;
43014;SDS011;28637;50.554;7.032;2023-11-22T18:58:29;3.97;;;2.00;;
43014;SDS011;28637;50.554;7.032;2023-11-22T19:03:30;3.20;;;1.75;;
43014;SDS011;28637;50.554;7.032;2023-11-22T19:08:31;3.47;;;2.25;;
43014;SDS011;28637;50.554;7.032;2023-11-22T19:13:31;2.75;;;2.08;;
43014;SDS011;28637;50.554;7.032;2023-11-22T19:18:32;5.15;;;2.25;;
43014;SDS011;28637;50.554;7.032;2023-11-22T19:23:33;4.22;;;2.25;;
43014;SDS011;28637;50.554;7.032;2023-11-22T19:28:33;3.80;;;2.45;;
43014;SDS011;28637;50.554;7.032;2023-11-22T19:33:35;3.77;;;2.37;;
43014;SDS011;28637;50.554;7.032;2023-11-22T19:38:37;4.97;;;2.60;;
43014;SDS011;28637;50.554;7.032;2023-11-22T19:48:39;4.43;;;2.67;;
43014;SDS011;28637;50.554;7.032;2023-11-22T19:53:39;4.38;;;2.65;;
43014;SDS011;28637;50.554;7.032;2023-11-22T19:58:41;3.97;;;2.78;;
43014;SDS011;28637;50.554;7.032;2023-11-22T20:03:42;4.38;;;2.72;;
43014;SDS011;28637;50.554;7.032;2023-11-22T20:08:43;4.22;;;2.88;;
43014;SDS011;28637;50.554;7.032;2023-11-22T20:13:43;4.90;;;2.92;;
43014;SDS011;28637;50.554;7.032;2023-11-22T20:18:44;5.20;;;2.90;;
43014;SDS011;28637;50.554;7.032;2023-11-22T20:23:45;4.88;;;3.00;;
43014;SDS011;28637;50.554;7.032;2023-11-22T20:28:45;8.02;;;2.70;;
43014;SDS011;28637;50.554;7.032;2023-11-22T20:33:46;5.93;;;3.10;;
43014;SDS011;28637;50.554;7.032;2023-11-22T20:38:47;5.13;;;2.85;;
43014;SDS011;28637;50.554;7.032;2023-11-22T20:43:51;5.68;;;3.08;;
43014;SDS011;28637;50.554;7.032;2023-11-22T20:48:52;9.52;;;5.68;;
43014;SDS011;28637;50.554;7.032;2023-11-22T20:53:54;5.75;;;3.53;;
43014;SDS011;28637;50.554;7.032;2023-11-22T20:58:55;4.45;;;2.63;;
43014;SDS011;28637;50.554;7.032;2023-11-22T21:03:56;7.95;;;3.20;;
43014;SDS011;28637;50.554;7.032;2023-11-22T21:08:57;5.53;;;3.20;;
43014;SDS011;28637;50.554;7.032;2023-11-22T21:13:58;5.30;;;3.37;;
43014;SDS011;28637;50.554;7.032;2023-11-22T21:18:59;4.97;;;3.40;;
43014;SDS011;28637;50.554;7.032;2023-11-22T21:24:00;5.43;;;2.95;;
43014;SDS011;28637;50.554;7.032;2023-11-22T21:29:03;5.65;;;3.42;;
43014;SDS011;28637;50.554;7.032;2023-11-22T21:34:06;9.23;;;3.67;;
43014;SDS011;28637;50.554;7.032;2023-11-22T21:39:07;6.63;;;3.72;;
43014;SDS011;28637;50.554;7.032;2023-11-22T21:44:11;8.93;;;3.80;;
43014;SDS011;28637;50.554;7.032;2023-11-22T21:49:12;7.53;;;3.83;;
43014;SDS011;28637;50.554;7.032;2023-11-22T21:54:13;9.30;;;4.03;;
43014;SDS011;28637;50.554;7.032;2023-11-22T21:59:14;7.80;;;4.10;;
43014;SDS011;28637;50.554;7.032;2023-11-22T22:04:14;5.93;;;3.30;;
43014;SDS011;28637;50.554;7.032;2023-11-22T22:09:15;8.05;;;4.00;;
43014;SDS011;28637;50.554;7.032;2023-11-22T22:14:19;8.82;;;4.07;;
43014;SDS011;28637;50.554;7.032;2023-11-22T22:19:20;6.57;;;3.88;;
43014;SDS011;28637;50.554;7.032;2023-11-22T22:24:21;7.10;;;3.90;;
43014;SDS011;28637;50.554;7.032;2023-11-22T22:29:22;8.13;;;3.75;;
43014;SDS011;28637;50.554;7.032;2023-11-22T22:34:23;6.70;;;3.55;;
43014;SDS011;28637;50.554;7.032;2023-11-22T22:39:23;7.80;;;3.97;;
43014;SDS011;28637;50.554;7.032;2023-11-22T22:44:24;10.05;;;4.20;;
43014;SDS011;28637;50.554;7.032;2023-11-22T22:49:25;6.88;;;3.95;;
43014;SDS011;28637;50.554;7.032;2023-11-22T22:54:26;7.53;;;3.95;;
43014;SDS011;28637;50.554;7.032;2023-11-22T22:59:27;8.32;;;4.15;;
43014;SDS011;28637;50.554;7.032;2023-11-22T23:04:28;7.40;;;3.97;;
43014;SDS011;28637;50.554;7.032;2023-11-22T23:09:29;7.63;;;4.05;;
43014;SDS011;28637;50.554;7.032;2023-11-22T23:14:30;10.70;;;4.35;;
43014;SDS011;28637;50.554;7.032;2023-11-22T23:19:31;6.97;;;4.03;;
43014;SDS011;28637;50.554;7.032;2023-11-22T23:24:32;7.67;;;3.80;;
43014;SDS011;28637;50.554;7.032;2023-11-22T23:29:33;10.13;;;4.57;;
43014;SDS011;28637;50.554;7.032;2023-11-22T23:34:38;6.75;;;3.95;;
43014;SDS011;28637;50.554;7.032;2023-11-22T23:39:39;8.17;;;4.30;;
43014;SDS011;28637;50.554;7.032;2023-11-22T23:44:40;8.90;;;4.53;;
43014;SDS011;28637;50.554;7.032;2023-11-22T23:49:41;8.35;;;4.30;;
43014;SDS011;28637;50.554;7.032;2023-11-22T23:54:43;8.35;;;4.38;;
43014;SDS011;28637;50.554;7.032;2023-11-22T23:59:44;8.27;;;4.57;;
